createdAt,value
2022-12-31T00:02:28.614Z,10.00
2022-12-31T00:05:19.593Z,10.00
2022-12-31T00:08:08.892Z,10.07
2022-12-31T00:10:58.265Z,10.03
2022-12-31T00:13:48.159Z,10.06
2022-12-31T00:16:40.305Z,10.06
2022-12-31T00:19:29.566Z,10.09
2022-12-31T00:22:20.181Z,10.17
2022-12-31T00:25:10.994Z,10.17
2022-12-31T00:28:00.265Z,10.18
2022-12-31T00:30:49.603Z,10.13
2022-12-31T00:33:39.754Z,10.12
2022-12-31T00:36:32.173Z,10.15
2022-12-31T00:39:22.751Z,10.16
2022-12-31T00:42:11.998Z,10.10
2022-12-31T00:45:01.226Z,10.15
2022-12-31T00:47:50.468Z,10.15
2022-12-31T00:50:39.797Z,10.12
2022-12-31T00:53:30.323Z,10.13
2022-12-31T00:56:23.822Z,10.12
2022-12-31T00:59:13.037Z,10.13
2022-12-31T01:02:02.402Z,10.08
2022-12-31T01:04:52.123Z,10.11
2022-12-31T01:07:41.454Z,10.12
2022-12-31T01:10:48.408Z,10.08
2022-12-31T01:13:39.027Z,10.06
2022-12-31T01:16:32.638Z,10.08
2022-12-31T01:19:25.262Z,10.05
2022-12-31T01:22:14.489Z,10.06
2022-12-31T01:25:03.680Z,10.04
2022-12-31T01:27:52.915Z,10.02
2022-12-31T01:30:43.564Z,9.93
2022-12-31T01:33:32.764Z,9.97
2022-12-31T01:36:26.586Z,9.95
2022-12-31T01:39:16.129Z,9.95
2022-12-31T01:42:05.821Z,9.95
2022-12-31T01:44:57.032Z,9.94
2022-12-31T01:47:51.786Z,10.06
2022-12-31T01:50:43.033Z,10.06
2022-12-31T01:53:32.991Z,10.06
2022-12-31T01:56:24.875Z,10.03
2022-12-31T01:59:16.597Z,10.06
2022-12-31T02:02:06.952Z,10.06
2022-12-31T02:05:01.422Z,10.03
2022-12-31T02:07:52.051Z,10.05
2022-12-31T02:10:41.353Z,10.04
2022-12-31T02:13:30.605Z,10.02
2022-12-31T02:16:28.584Z,10.00
2022-12-31T02:19:56.830Z,10.00
2022-12-31T02:23:30.406Z,9.91
2022-12-31T02:26:54.808Z,9.96
2022-12-31T02:30:11.351Z,9.95
2022-12-31T02:33:16.078Z,9.91
2022-12-31T02:36:10.992Z,9.90
2022-12-31T02:39:00.803Z,9.87
2022-12-31T02:41:54.026Z,9.82
2022-12-31T02:44:43.739Z,9.82
2022-12-31T02:47:51.386Z,9.78
2022-12-31T02:50:56.456Z,9.78
2022-12-31T02:54:21.374Z,9.77
2022-12-31T02:57:17.672Z,9.79
2022-12-31T03:00:26.822Z,9.74
2022-12-31T03:03:18.384Z,9.72
2022-12-31T03:06:10.763Z,9.76
2022-12-31T03:09:16.319Z,9.76
2022-12-31T03:12:25.379Z,9.74
2022-12-31T03:15:21.483Z,9.68
2022-12-31T03:18:14.174Z,9.63
2022-12-31T03:21:30.886Z,9.70
2022-12-31T03:24:37.462Z,9.66
2022-12-31T03:27:29.230Z,9.65
2022-12-31T03:30:20.390Z,9.63
2022-12-31T03:33:10.353Z,9.60
2022-12-31T03:35:59.722Z,9.63
2022-12-31T03:38:52.802Z,9.60
2022-12-31T03:41:42.102Z,9.63
2022-12-31T03:44:31.514Z,9.62
2022-12-31T03:47:20.881Z,9.45
2022-12-31T03:50:12.941Z,9.48
2022-12-31T03:53:02.522Z,9.51
2022-12-31T03:55:54.757Z,9.50
2022-12-31T03:58:44.005Z,9.59
2022-12-31T04:01:34.097Z,9.59
2022-12-31T04:04:23.676Z,9.53
2022-12-31T04:07:13.192Z,9.60
2022-12-31T04:10:02.682Z,9.55
2022-12-31T04:12:53.339Z,9.58
2022-12-31T04:15:42.599Z,9.59
2022-12-31T04:18:31.837Z,9.57
2022-12-31T04:21:21.162Z,9.57
2022-12-31T04:24:10.726Z,9.58
2022-12-31T04:27:07.039Z,9.50
2022-12-31T04:29:58.002Z,9.53
2022-12-31T04:32:47.216Z,9.53
2022-12-31T04:35:36.467Z,9.51
2022-12-31T04:38:25.749Z,9.53
2022-12-31T04:41:18.090Z,9.53
2022-12-31T04:44:07.405Z,9.51
2022-12-31T04:46:58.091Z,9.51
2022-12-31T04:49:47.322Z,9.50
2022-12-31T04:52:42.429Z,9.52
2022-12-31T04:55:31.854Z,9.52
2022-12-31T04:58:21.595Z,9.46
2022-12-31T05:01:11.467Z,9.50
2022-12-31T05:04:02.189Z,9.55
2022-12-31T05:06:51.528Z,9.53
2022-12-31T05:09:40.909Z,9.57
2022-12-31T05:12:30.101Z,9.52
2022-12-31T05:15:19.381Z,9.56
2022-12-31T05:18:09.152Z,9.51
2022-12-31T05:21:00.239Z,9.58
2022-12-31T05:23:50.298Z,9.56
2022-12-31T05:26:39.552Z,9.59
2022-12-31T05:29:28.906Z,9.59
2022-12-31T05:32:18.400Z,9.50
2022-12-31T05:35:09.003Z,9.55
2022-12-31T05:38:01.193Z,9.55
2022-12-31T05:40:50.389Z,9.46
2022-12-31T05:43:39.637Z,9.50
2022-12-31T05:46:29.576Z,9.51
2022-12-31T05:49:18.879Z,9.43
2022-12-31T05:52:08.499Z,9.50
2022-12-31T05:54:59.895Z,9.51
2022-12-31T05:57:49.224Z,9.53
2022-12-31T06:00:38.497Z,9.52
2022-12-31T06:03:27.821Z,9.55
2022-12-31T06:06:17.143Z,9.53
2022-12-31T06:09:06.488Z,9.51
2022-12-31T06:11:57.282Z,9.46
2022-12-31T06:14:46.590Z,9.52
2022-12-31T06:17:35.794Z,9.49
2022-12-31T06:20:25.048Z,9.56
2022-12-31T06:23:14.306Z,9.55
2022-12-31T06:26:03.759Z,9.55
2022-12-31T06:28:54.532Z,9.53
2022-12-31T06:31:43.832Z,9.51
2022-12-31T06:34:33.138Z,9.53
2022-12-31T06:37:22.477Z,9.53
2022-12-31T06:40:13.383Z,9.52
2022-12-31T06:43:03.211Z,9.51
2022-12-31T06:45:53.853Z,9.53
2022-12-31T06:48:44.860Z,9.48
2022-12-31T06:51:34.186Z,9.54
2022-12-31T06:54:23.629Z,9.50
2022-12-31T06:57:13.873Z,9.52
2022-12-31T07:00:05.566Z,9.52
2022-12-31T07:03:20.907Z,9.57
2022-12-31T07:06:14.904Z,9.56
2022-12-31T07:09:13.523Z,9.46
2022-12-31T07:12:13.915Z,9.58
2022-12-31T07:15:12.806Z,9.61
2022-12-31T07:18:16.203Z,9.62
2022-12-31T07:21:09.195Z,9.58
2022-12-31T07:23:59.160Z,9.55
2022-12-31T07:27:09.559Z,9.56
2022-12-31T07:30:07.820Z,9.50
2022-12-31T07:33:35.796Z,9.45
2022-12-31T07:36:48.190Z,9.49
2022-12-31T07:39:46.821Z,9.48
2022-12-31T07:42:46.268Z,9.50
2022-12-31T07:45:45.190Z,9.52
2022-12-31T07:48:36.791Z,9.51
2022-12-31T07:51:28.902Z,9.50
2022-12-31T07:54:18.254Z,9.49
2022-12-31T07:57:07.686Z,9.46
2022-12-31T08:00:08.038Z,9.49
2022-12-31T08:03:25.159Z,9.46
2022-12-31T08:06:26.677Z,9.43
2022-12-31T08:09:38.237Z,9.45
2022-12-31T08:12:30.618Z,9.48
2022-12-31T08:15:26.862Z,9.49
2022-12-31T08:18:19.998Z,9.48
2022-12-31T08:21:29.459Z,9.47
2022-12-31T08:24:35.892Z,9.41
2022-12-31T08:27:35.386Z,9.46
2022-12-31T08:30:29.352Z,9.42
2022-12-31T08:33:27.525Z,9.42
2022-12-31T08:36:30.710Z,9.42
2022-12-31T08:39:35.038Z,9.36
2022-12-31T08:42:32.455Z,9.35
2022-12-31T08:45:29.595Z,9.30
2022-12-31T08:48:32.035Z,9.34
2022-12-31T08:51:25.681Z,9.28
2022-12-31T08:54:15.725Z,9.34
2022-12-31T08:57:16.243Z,9.37
2022-12-31T09:00:12.452Z,9.38
2022-12-31T09:03:27.131Z,9.36
2022-12-31T09:06:28.349Z,9.33
2022-12-31T09:09:33.265Z,9.37
2022-12-31T09:12:30.869Z,9.37
2022-12-31T09:15:29.311Z,9.43
2022-12-31T09:18:19.235Z,9.46
2022-12-31T09:21:11.345Z,9.44
2022-12-31T09:24:09.141Z,9.49
2022-12-31T09:27:11.925Z,9.45
2022-12-31T09:30:06.056Z,9.50
2022-12-31T09:33:03.143Z,9.47
2022-12-31T09:35:56.443Z,9.55
2022-12-31T09:39:06.798Z,9.58
2022-12-31T09:42:51.000Z,9.62
2022-12-31T09:45:58.313Z,9.63
2022-12-31T09:49:57.556Z,9.68
2022-12-31T09:53:08.236Z,9.67
2022-12-31T09:56:06.538Z,9.73
2022-12-31T09:59:07.058Z,9.75
2022-12-31T10:02:03.854Z,9.74
2022-12-31T10:05:25.425Z,9.72
2022-12-31T10:08:29.788Z,9.79
2022-12-31T10:11:30.612Z,9.77
2022-12-31T10:14:47.121Z,9.80
2022-12-31T10:17:55.918Z,9.87
2022-12-31T10:20:59.273Z,9.82
2022-12-31T10:24:01.296Z,9.95
2022-12-31T10:27:22.382Z,9.95
2022-12-31T10:30:18.393Z,9.95
2022-12-31T10:33:18.141Z,10.01
2022-12-31T10:36:15.458Z,9.99
2022-12-31T10:39:22.180Z,10.02
2022-12-31T10:43:05.061Z,10.11
2022-12-31T10:46:37.229Z,10.16
2022-12-31T10:50:04.424Z,10.17
2022-12-31T10:53:29.665Z,10.21
2022-12-31T10:57:22.197Z,10.22
2022-12-31T11:00:19.902Z,10.08
2022-12-31T11:04:13.429Z,10.22
2022-12-31T11:07:41.317Z,10.30
2022-12-31T11:10:58.059Z,10.32
2022-12-31T11:14:49.390Z,10.32
2022-12-31T11:17:54.885Z,10.37
2022-12-31T11:21:09.287Z,10.34
2022-12-31T11:24:13.654Z,10.42
2022-12-31T11:27:24.729Z,10.48
2022-12-31T11:30:24.611Z,10.47
2022-12-31T11:33:28.938Z,10.56
2022-12-31T11:36:29.873Z,10.69
2022-12-31T11:39:41.022Z,10.71
2022-12-31T11:42:45.424Z,10.68
2022-12-31T11:46:02.295Z,10.83
2022-12-31T11:49:12.919Z,10.86
2022-12-31T11:52:43.500Z,10.91
2022-12-31T11:55:47.610Z,10.94
2022-12-31T11:58:37.129Z,10.88
2022-12-31T12:01:31.962Z,10.90
2022-12-31T12:04:22.825Z,10.94
2022-12-31T12:07:15.837Z,11.02
2022-12-31T12:10:18.192Z,11.03
2022-12-31T12:13:23.261Z,11.11
2022-12-31T12:16:12.727Z,11.09
2022-12-31T12:19:09.325Z,11.20
2022-12-31T12:22:10.361Z,11.37
2022-12-31T12:25:06.836Z,11.46
2022-12-31T12:27:56.343Z,11.62
2022-12-31T12:30:46.212Z,11.57
2022-12-31T12:33:46.561Z,11.68
2022-12-31T12:36:35.887Z,11.83
2022-12-31T12:39:30.556Z,11.83
2022-12-31T12:42:19.796Z,11.98
2022-12-31T12:45:17.973Z,11.96
2022-12-31T12:48:19.631Z,11.97
2022-12-31T12:51:28.696Z,12.02
2022-12-31T12:54:39.325Z,12.04
2022-12-31T12:57:35.902Z,11.99
2022-12-31T13:00:34.769Z,12.02
2022-12-31T13:07:25.938Z,12.10
2022-12-31T13:10:38.150Z,12.08
2022-12-31T13:13:38.023Z,12.07
2022-12-31T13:16:40.116Z,11.96
2022-12-31T13:19:37.796Z,12.06
2022-12-31T13:22:34.925Z,12.02
2022-12-31T13:25:33.979Z,12.11
2022-12-31T13:28:26.608Z,12.14
2022-12-31T13:31:23.237Z,12.14
2022-12-31T13:34:19.212Z,12.16
2022-12-31T13:37:26.485Z,12.21
2022-12-31T13:40:25.981Z,12.28
2022-12-31T13:43:29.283Z,12.38
2022-12-31T13:46:27.996Z,12.43
2022-12-31T13:49:24.115Z,12.40
2022-12-31T13:52:35.913Z,12.23
2022-12-31T13:55:34.832Z,12.21
2022-12-31T13:58:37.334Z,12.33
2022-12-31T14:01:35.369Z,12.25
2022-12-31T14:04:36.793Z,12.33
2022-12-31T14:07:43.449Z,12.25
2022-12-31T14:11:02.522Z,12.31
2022-12-31T14:14:11.961Z,12.30
2022-12-31T14:17:14.334Z,12.32
2022-12-31T14:20:19.907Z,12.26
2022-12-31T14:23:23.031Z,12.20
2022-12-31T14:26:23.041Z,12.21
2022-12-31T14:29:30.939Z,12.14
2022-12-31T14:33:03.830Z,12.21
2022-12-31T14:36:11.340Z,12.20
2022-12-31T14:39:21.329Z,12.25
2022-12-31T14:42:25.736Z,12.38
2022-12-31T14:45:36.028Z,12.47
2022-12-31T14:48:41.361Z,12.43
2022-12-31T14:51:32.660Z,12.39
2022-12-31T14:54:30.690Z,12.41
2022-12-31T14:57:28.839Z,12.42
2022-12-31T15:00:35.487Z,12.43
2022-12-31T15:03:33.874Z,12.37
2022-12-31T15:06:52.052Z,12.33
2022-12-31T15:10:12.621Z,12.28
2022-12-31T15:13:08.878Z,12.26
2022-12-31T15:16:43.669Z,12.17
2022-12-31T15:20:16.703Z,12.14
2022-12-31T15:23:21.632Z,12.09
2022-12-31T15:26:24.402Z,12.07
2022-12-31T15:29:27.869Z,12.00
2022-12-31T15:32:23.951Z,11.93
2022-12-31T15:35:30.756Z,11.82
2022-12-31T15:38:37.067Z,11.90
2022-12-31T15:41:38.669Z,11.91
2022-12-31T15:44:34.006Z,11.74
2022-12-31T15:47:31.840Z,11.85
2022-12-31T15:50:25.102Z,11.74
2022-12-31T15:53:27.741Z,11.73
2022-12-31T15:56:23.038Z,11.75
2022-12-31T15:59:16.301Z,11.74
2022-12-31T16:02:05.654Z,11.73
2022-12-31T16:04:57.676Z,11.69
2022-12-31T16:07:47.530Z,11.67
2022-12-31T16:10:37.417Z,11.78
2022-12-31T16:13:29.178Z,11.81
2022-12-31T16:16:24.748Z,11.74
2022-12-31T16:19:31.779Z,11.73
2022-12-31T16:22:29.481Z,11.69
2022-12-31T16:25:31.018Z,11.63
2022-12-31T16:28:24.677Z,11.58
2022-12-31T16:31:18.943Z,11.50
2022-12-31T16:34:14.703Z,11.56
2022-12-31T16:37:06.287Z,11.54
2022-12-31T16:40:21.505Z,11.51
2022-12-31T16:43:29.165Z,11.46
2022-12-31T16:46:23.069Z,11.39
2022-12-31T16:49:21.404Z,11.34
2022-12-31T16:52:28.463Z,11.32
2022-12-31T16:55:22.753Z,11.33
2022-12-31T16:58:20.901Z,11.28
2022-12-31T17:01:19.104Z,11.31
2022-12-31T17:04:13.710Z,11.24
2022-12-31T17:07:37.264Z,11.27
2022-12-31T17:10:35.143Z,11.26
2022-12-31T17:13:30.931Z,11.20
2022-12-31T17:16:20.791Z,11.23
2022-12-31T17:19:39.005Z,11.22
2022-12-31T17:22:36.922Z,11.19
2022-12-31T17:25:31.278Z,11.07
2022-12-31T17:28:24.355Z,11.11
2022-12-31T17:31:36.240Z,11.02
2022-12-31T17:34:30.638Z,11.05
2022-12-31T17:37:25.052Z,10.94
2022-12-31T17:40:50.768Z,10.94
2022-12-31T17:43:41.373Z,10.99
2022-12-31T17:46:30.919Z,10.90
2022-12-31T17:49:31.682Z,10.89
2022-12-31T17:52:20.921Z,10.80
2022-12-31T17:55:10.132Z,10.75
2022-12-31T17:58:06.231Z,10.71
2022-12-31T18:00:56.187Z,10.57
2022-12-31T18:03:45.710Z,10.51
2022-12-31T18:06:35.010Z,10.45
2022-12-31T18:09:24.726Z,10.43
2022-12-31T18:12:15.723Z,10.36
2022-12-31T18:15:09.223Z,10.39
2022-12-31T18:17:58.565Z,10.38
2022-12-31T18:20:49.114Z,10.33
2022-12-31T18:23:42.611Z,10.30
2022-12-31T18:26:32.736Z,10.25
2022-12-31T18:29:23.703Z,10.30
2022-12-31T18:32:23.779Z,10.28
2022-12-31T18:35:48.677Z,10.22
2022-12-31T18:38:26.401Z,10.26
2022-12-31T18:41:21.320Z,10.26
2022-12-31T18:44:14.963Z,10.25
2022-12-31T18:47:04.600Z,10.29
2022-12-31T18:49:55.292Z,10.30
2022-12-31T18:52:44.906Z,10.41
2022-12-31T18:55:40.326Z,10.43
2022-12-31T18:58:29.541Z,10.44
2022-12-31T19:01:29.032Z,10.40
2022-12-31T19:04:27.584Z,10.46
2022-12-31T19:07:18.553Z,10.49
2022-12-31T19:10:08.836Z,10.52
2022-12-31T19:12:58.169Z,10.50
2022-12-31T19:15:50.098Z,10.45
2022-12-31T19:18:39.315Z,10.50
2022-12-31T19:21:28.580Z,10.50
2022-12-31T19:24:21.986Z,10.45
2022-12-31T19:27:17.089Z,10.44
2022-12-31T19:30:08.005Z,10.45
2022-12-31T19:32:57.662Z,10.36
2022-12-31T19:35:47.897Z,10.40
2022-12-31T19:38:37.201Z,10.41
2022-12-31T19:41:27.893Z,10.38
2022-12-31T19:44:19.207Z,10.41
2022-12-31T19:47:12.965Z,10.36
2022-12-31T19:50:02.275Z,10.42
2022-12-31T19:52:55.259Z,10.40
2022-12-31T19:55:44.907Z,10.41
2022-12-31T19:58:35.558Z,10.41
2022-12-31T20:01:26.599Z,10.35
2022-12-31T20:04:15.878Z,10.39
2022-12-31T20:07:05.189Z,10.45
2022-12-31T20:09:54.416Z,10.35
2022-12-31T20:12:44.767Z,10.43
2022-12-31T20:15:35.709Z,10.41
2022-12-31T20:18:25.066Z,10.42
2022-12-31T20:21:17.999Z,10.35
2022-12-31T20:24:08.043Z,10.34
2022-12-31T20:26:57.333Z,10.36
2022-12-31T20:29:47.171Z,10.28
2022-12-31T20:32:38.120Z,10.25
2022-12-31T20:35:27.362Z,10.24
2022-12-31T20:38:17.022Z,10.21
2022-12-31T20:41:08.125Z,10.28
2022-12-31T20:43:57.464Z,10.28
2022-12-31T20:46:46.752Z,10.25
2022-12-31T20:50:09.865Z,10.24
2022-12-31T20:52:51.389Z,10.17
2022-12-31T20:55:42.487Z,10.08
2022-12-31T20:58:32.376Z,10.07
2022-12-31T21:01:22.762Z,10.04
2022-12-31T21:04:13.926Z,10.00
2022-12-31T21:07:06.999Z,10.02
2022-12-31T21:09:57.015Z,10.02
2022-12-31T21:12:53.761Z,10.00
2022-12-31T21:15:43.773Z,9.98
2022-12-31T21:18:33.799Z,9.98
2022-12-31T21:21:24.752Z,9.95
2022-12-31T21:24:23.255Z,9.93
2022-12-31T21:27:16.518Z,9.90
2022-12-31T21:30:19.023Z,9.90
2022-12-31T21:33:09.786Z,9.89
2022-12-31T21:36:04.823Z,9.78
2022-12-31T21:38:54.372Z,9.83
2022-12-31T21:41:55.071Z,9.80
2022-12-31T21:44:45.221Z,9.77
2022-12-31T21:47:52.142Z,9.72
2022-12-31T21:50:42.554Z,9.72
2022-12-31T21:53:36.933Z,9.67
2022-12-31T21:56:26.360Z,9.63
2022-12-31T21:59:34.371Z,9.61
2022-12-31T22:02:59.702Z,9.59
2022-12-31T22:05:53.926Z,9.60
2022-12-31T22:08:45.696Z,9.55
2022-12-31T22:11:35.073Z,9.57
2022-12-31T22:14:25.814Z,9.63
2022-12-31T22:17:15.244Z,9.57
2022-12-31T22:20:26.410Z,9.62
2022-12-31T22:23:16.038Z,9.61
2022-12-31T22:26:06.597Z,9.65
2022-12-31T22:28:59.524Z,9.65
2022-12-31T22:31:50.768Z,9.60
2022-12-31T22:34:40.161Z,9.58
2022-12-31T22:37:56.384Z,9.62
2022-12-31T22:40:38.861Z,9.51
2022-12-31T22:43:28.210Z,9.56
2022-12-31T22:46:19.744Z,9.48
2022-12-31T22:49:12.437Z,9.52
2022-12-31T22:52:04.358Z,9.56
2022-12-31T22:54:58.200Z,9.59
2022-12-31T22:57:47.642Z,9.52
2022-12-31T23:00:42.138Z,9.59
2022-12-31T23:03:31.660Z,9.59
2022-12-31T23:06:25.317Z,9.61
2022-12-31T23:09:34.155Z,9.61
2022-12-31T23:12:23.491Z,9.74
2022-12-31T23:15:30.118Z,9.72
2022-12-31T23:18:36.802Z,9.64
2022-12-31T23:21:44.920Z,9.69
2022-12-31T23:24:34.202Z,9.62
2022-12-31T23:27:23.680Z,9.58
2022-12-31T23:30:14.609Z,9.64
2022-12-31T23:33:03.916Z,9.66
2022-12-31T23:36:05.126Z,9.59
2022-12-31T23:38:57.596Z,9.61
2022-12-31T23:41:46.887Z,9.60
2022-12-31T23:44:36.188Z,9.68
2022-12-31T23:47:25.444Z,9.56
2022-12-31T23:50:14.702Z,9.42
2022-12-31T23:53:03.895Z,9.38
2022-12-31T23:55:54.621Z,9.46
2022-12-31T23:58:44.108Z,9.41
